Terminal Aerodrome Forecast
Issued by NWS Omaha/Valley, NE

Home | Current Version | Previous Version | Graphics & Text | Print | Product List | Glossary On
Versions: 1 2 3 4 5 6 7 8 9 10 11 12 13 14 15 16 17 18 19 20 21 22 23
000
FTUS43 KOAX 151135
TAFOFK
TAF
KOFK 151135Z 1512/1612 34006KT 6SM -TSRA OVC060CB
      TEMPO 1512/1514 3SM TSRA OVC025CB
     FM151400 12009KT 6SM -TSRA BKN015CB
     FM151600 13010KT P6SM VCSH BKN020
     FM151800 15011KT P6SM VCSH BKN090
     FM160100 15010KT 6SM -SHRA VCTS BKN060CB
     FM160600 13006KT 4SM -TSRA BR OVC025CB=

USA.gov is the U.S. government's official web portal to all federal, state and local government web resources and services.